Time;durP1;ratioP1;P1;durP2;ratioP2;P2;SDS_P1;SDS_P2;PMS_P1;PMS_P2;Temp;Humidity;BMP_temperature;BMP_pressure;BME280_temperature;BME280_humidity;BME280_pressure;Samples;Min_cycle;Max_cycle;Signal;HPM_P1;HPM_P2
2024/01/18 00:00:17;;;;;;;0.93;0.93;;;;;;;1.41;100.00;95933.16;4173749;28;20228;-50
2024/01/18 00:02:19;;;;;;;1.00;1.00;;;;;;;1.50;100.00;95937.00;4207391;28;20292;-50
2024/01/18 00:04:20;;;;;;;1.00;1.00;;;;;;;1.43;100.00;95930.19;4194634;28;20545;-49
2024/01/18 00:06:22;;;;;;;1.27;1.27;;;;;;;1.40;100.00;95923.44;4197607;28;20207;-51
2024/01/18 00:08:24;;;;;;;1.30;1.30;;;;;;;1.40;100.00;95928.84;4177745;28;20212;-50
2024/01/18 00:10:29;;;;;;;0.95;0.95;;;;;;;1.48;100.00;95932.94;4193773;28;20203;-50
2024/01/18 00:12:31;;;;;;;1.15;1.15;;;;;;;1.45;100.00;95934.28;4175188;28;20232;-50
2024/01/18 00:14:33;;;;;;;0.90;0.90;;;;;;;1.39;100.00;95940.69;4190384;28;20203;-51
2024/01/18 00:16:34;;;;;;;0.90;0.90;;;;;;;1.41;100.00;95946.59;4193214;28;20207;-50
2024/01/18 00:18:36;;;;;;;2.42;1.13;;;;;;;1.45;100.00;95944.22;4192945;28;20265;-50
2024/01/18 00:20:38;;;;;;;1.25;1.23;;;;;;;1.46;100.00;95946.66;4194110;28;20227;-51
2024/01/18 00:22:40;;;;;;;1.20;1.20;;;;;;;1.33;100.00;95949.78;4195367;28;20230;-50
2024/01/18 00:24:42;;;;;;;1.35;1.35;;;;;;;1.39;100.00;95954.13;4176391;28;20640;-49
2024/01/18 00:26:43;;;;;;;1.60;1.60;;;;;;;1.47;100.00;95950.19;4193014;28;20779;-51
2024/01/18 00:28:45;;;;;;;1.00;1.00;;;;;;;1.36;100.00;95951.97;4184628;28;20259;-51
2024/01/18 00:30:47;;;;;;;0.98;0.98;;;;;;;1.40;100.00;95939.59;4177590;28;20200;-51
2024/01/18 00:32:49;;;;;;;2.10;2.00;;;;;;;1.35;100.00;95949.53;4193084;28;20227;-50
2024/01/18 00:34:51;;;;;;;1.55;1.45;;;;;;;1.35;100.00;95949.53;4193180;28;20211;-50
2024/01/18 00:36:53;;;;;;;1.13;1.13;;;;;;;1.36;100.00;95946.59;4171399;28;20645;-50
2024/01/18 00:38:54;;;;;;;1.00;1.00;;;;;;;1.39;100.00;95950.63;4194208;28;20234;-50
2024/01/18 00:40:56;;;;;;;1.17;1.17;;;;;;;1.39;100.00;95951.44;4193587;28;20273;-50
2024/01/18 00:42:58;;;;;;;1.00;1.00;;;;;;;1.47;100.00;95953.66;4193988;28;20227;-51
2024/01/18 00:45:00;;;;;;;1.17;1.17;;;;;;;1.37;100.00;95958.97;4208327;28;20260;-51
2024/01/18 00:47:02;;;;;;;1.42;1.33;;;;;;;1.39;100.00;95956.84;4209380;28;20243;-50
2024/01/18 00:49:04;;;;;;;1.55;1.55;;;;;;;1.35;100.00;95961.09;4192333;28;20237;-51
2024/01/18 00:51:06;;;;;;;1.05;1.05;;;;;;;1.35;100.00;95955.72;4191442;28;20724;-51
2024/01/18 00:53:08;;;;;;;1.00;1.00;;;;;;;1.38;100.00;95973.25;4194554;28;20208;-51
2024/01/18 00:55:10;;;;;;;1.40;1.40;;;;;;;1.35;100.00;95971.06;4208568;28;20248;-51
2024/01/18 00:57:12;;;;;;;1.55;1.55;;;;;;;1.38;100.00;95963.28;4208910;28;20289;-50
2024/01/18 00:59:13;;;;;;;1.00;1.00;;;;;;;1.41;100.00;95970.84;4192190;28;20677;-50
2024/01/18 01:01:16;;;;;;;1.20;1.17;;;;;;;1.37;100.00;95958.97;4207642;28;20223;-50
2024/01/18 01:03:18;;;;;;;0.98;0.98;;;;;;;1.33;100.00;95963.25;4192366;28;20211;-50
2024/01/18 01:05:19;;;;;;;0.73;0.73;;;;;;;1.32;100.00;95967.00;4193183;28;20230;-49
2024/01/18 01:07:21;;;;;;;1.15;1.15;;;;;;;1.33;100.00;95965.94;4193937;28;20218;-49
2024/01/18 01:09:24;;;;;;;1.00;1.00;;;;;;;1.35;100.00;95968.38;4191169;28;20207;-50
2024/01/18 01:11:25;;;;;;;1.10;1.10;;;;;;;1.38;100.00;95971.38;4197869;28;20648;-50
2024/01/18 01:13:27;;;;;;;0.80;0.80;;;;;;;1.34;100.00;95970.25;4210277;28;20678;-50
2024/01/18 01:15:29;;;;;;;1.15;1.05;;;;;;;1.40;100.00;95969.22;4194565;28;20214;-50
2024/01/18 01:17:31;;;;;;;1.08;1.08;;;;;;;1.37;100.00;95969.75;4213682;28;20210;-50
2024/01/18 01:19:32;;;;;;;0.80;0.80;;;;;;;1.36;100.00;95984.28;4178354;28;20240;-50
2024/01/18 01:21:34;;;;;;;1.00;1.00;;;;;;;1.30;100.00;95974.53;4193551;28;20741;-49
2024/01/18 01:23:38;;;;;;;0.95;0.95;;;;;;;1.35;100.00;95977.25;4194525;28;20222;-51
2024/01/18 01:25:40;;;;;;;1.17;1.17;;;;;;;1.30;100.00;95979.09;4195105;28;20218;-50
2024/01/18 01:27:42;;;;;;;1.10;1.10;;;;;;;1.34;100.00;95981.03;4197957;28;20344;-49
2024/01/18 01:29:44;;;;;;;1.42;1.42;;;;;;;1.33;100.00;95984.78;4202486;28;20206;-50
2024/01/18 01:31:46;;;;;;;0.88;0.88;;;;;;;1.32;100.00;95977.78;4194373;28;20231;-50
2024/01/18 01:33:48;;;;;;;1.00;1.00;;;;;;;1.32;100.00;95985.84;4194089;28;20774;-50
2024/01/18 01:35:51;;;;;;;1.08;1.08;;;;;;;1.34;100.00;95999.88;4194461;28;20207;-50
2024/01/18 01:37:52;;;;;;;1.17;1.17;;;;;;;1.34;100.00;95997.19;4189907;28;20207;-50
2024/01/18 01:39:54;;;;;;;1.17;1.17;;;;;;;1.38;100.00;95992.91;4193362;28;20242;-50
2024/01/18 01:41:56;;;;;;;0.90;0.90;;;;;;;1.37;100.00;96003.94;4194255;28;20226;-50
2024/01/18 01:44:01;;;;;;;0.90;0.90;;;;;;;1.37;100.00;96001.25;4195427;28;20203;-48
2024/01/18 01:46:03;;;;;;;1.27;1.20;;;;;;;1.32;100.00;95999.31;4193347;28;20204;-51
2024/01/18 01:48:06;;;;;;;1.05;1.05;;;;;;;1.19;100.00;95999.72;4191311;28;20712;-50
2024/01/18 01:50:09;;;;;;;1.30;1.30;;;;;;;1.23;100.00;96000.84;4195015;28;20223;-49
2024/01/18 01:52:12;;;;;;;0.90;0.90;;;;;;;1.06;100.00;96004.69;4194955;28;20223;-49
2024/01/18 01:54:18;;;;;;;1.08;1.08;;;;;;;1.08;100.00;96003.34;4193218;28;20211;-49
2024/01/18 01:56:20;;;;;;;1.50;1.40;;;;;;;1.09;100.00;96026.50;4189829;28;20254;-50
2024/01/18 01:58:22;;;;;;;1.10;1.10;;;;;;;1.15;100.00;96003.19;4206309;28;20722;-49
2024/01/18 02:00:24;;;;;;;1.48;1.38;;;;;;;1.02;100.00;96020.50;4185212;28;20223;-49
2024/01/18 02:02:26;;;;;;;1.80;1.80;;;;;;;1.08;100.00;96022.19;4188151;28;20691;-49
2024/01/18 02:04:28;;;;;;;1.30;1.30;;;;;;;1.20;100.00;96020.19;4187578;28;20617;-51
2024/01/18 02:06:33;;;;;;;1.52;1.50;;;;;;;1.15;100.00;96014.75;4173406;28;20211;-50
2024/01/18 02:08:37;;;;;;;1.38;1.27;;;;;;;1.25;100.00;96009.47;4190944;28;20206;-50
2024/01/18 02:10:39;;;;;;;1.52;1.50;;;;;;;1.16;100.00;96011.00;4176780;28;20263;-50
2024/01/18 02:12:44;;;;;;;1.15;1.15;;;;;;;1.19;100.00;96015.88;4191361;28;20231;-48
2024/01/18 02:14:46;;;;;;;1.60;1.50;;;;;;;1.17;100.00;96009.94;4193583;28;20703;-50
2024/01/18 02:16:48;;;;;;;3.33;1.40;;;;;;;1.17;100.00;96018.03;4201855;28;20251;-49
2024/01/18 02:18:49;;;;;;;1.20;1.20;;;;;;;1.18;100.00;96025.03;4208539;28;20791;-49
2024/01/18 02:20:54;;;;;;;1.65;1.55;;;;;;;1.22;100.00;96026.13;4192116;28;20285;-49
2024/01/18 02:22:56;;;;;;;1.50;1.45;;;;;;;1.18;100.00;96024.19;4189506;28;20259;-50
2024/01/18 02:25:06;;;;;;;1.30;1.20;;;;;;;1.08;100.00;96021.41;4174468;28;20637;-49
2024/01/18 02:27:08;;;;;;;1.15;1.15;;;;;;;1.08;100.00;96035.66;4175562;28;20200;-50
2024/01/18 02:29:09;;;;;;;1.25;1.25;;;;;;;1.13;100.00;96033.03;4176305;28;20206;-49
2024/01/18 02:31:11;;;;;;;0.90;0.90;;;;;;;1.21;100.00;96032.59;4190119;28;22598;-49
2024/01/18 02:33:13;;;;;;;1.08;1.08;;;;;;;1.16;100.00;96029.84;4192580;28;20294;-50
2024/01/18 02:35:16;;;;;;;1.30;1.30;;;;;;;1.21;100.00;96035.28;4190208;28;20234;-50
2024/01/18 02:37:18;;;;;;;1.23;1.23;;;;;;;1.21;100.00;96024.50;4194055;28;20215;-51
2024/01/18 02:39:19;;;;;;;1.73;1.63;;;;;;;1.19;100.00;96018.56;4207802;28;20765;-51
2024/01/18 02:41:21;;;;;;;1.60;1.50;;;;;;;1.13;100.00;96011.50;4192831;28;20266;-49
2024/01/18 02:43:23;;;;;;;1.25;1.23;;;;;;;1.11;100.00;96012.81;4175679;28;20718;-49
2024/01/18 02:45:25;;;;;;;1.20;1.20;;;;;;;1.17;100.00;96001.88;4191029;28;20209;-50
2024/01/18 02:47:28;;;;;;;0.90;0.90;;;;;;;1.09;100.00;96004.97;4193767;28;20212;-50
2024/01/18 02:49:29;;;;;;;1.35;1.35;;;;;;;1.14;100.00;96004.25;4207089;28;20285;-50
2024/01/18 02:51:32;;;;;;;1.25;1.25;;;;;;;1.17;100.00;96007.25;4190233;28;20231;-50
2024/01/18 02:53:34;;;;;;;1.33;1.30;;;;;;;1.12;100.00;95992.91;4182908;28;20784;-48
2024/01/18 02:55:36;;;;;;;1.55;1.45;;;;;;;1.13;100.00;95999.91;4193942;28;20764;-50
2024/01/18 02:57:41;;;;;;;1.38;1.38;;;;;;;1.12;100.00;96014.44;4209059;28;20238;-49
2024/01/18 02:59:43;;;;;;;1.40;1.40;;;;;;;1.13;100.00;96011.50;4189381;28;20207;-49
2024/01/18 03:01:44;;;;;;;1.60;1.50;;;;;;;1.19;100.00;95997.03;4191919;28;20246;-50
2024/01/18 03:03:46;;;;;;;2.15;2.05;;;;;;;1.04;100.00;95991.50;4189179;28;20211;-50
2024/01/18 03:05:48;;;;;;;0.88;0.88;;;;;;;1.08;100.00;95997.19;4190758;28;20211;-49
2024/01/18 03:07:50;;;;;;;1.17;1.17;;;;;;;1.06;100.00;95985.84;4175907;28;20702;-50
2024/01/18 03:09:52;;;;;;;1.20;1.20;;;;;;;0.97;100.00;95993.56;4197217;28;20219;-49
2024/01/18 03:11:54;;;;;;;1.15;1.05;;;;;;;1.04;100.00;95996.03;4207307;28;20261;-48
2024/01/18 03:13:55;;;;;;;0.70;0.70;;;;;;;1.02;100.00;95993.59;4191549;28;20212;-50
2024/01/18 03:15:57;;;;;;;1.02;1.02;;;;;;;1.03;100.00;95999.81;4192557;28;20207;-50
2024/01/18 03:17:59;;;;;;;1.23;1.23;;;;;;;1.02;100.00;95998.97;4189881;28;20215;-49
2024/01/18 03:20:06;;;;;;;1.48;1.30;;;;;;;1.02;100.00;95990.91;4190329;28;20732;-49
2024/01/18 03:22:08;;;;;;;1.00;1.00;;;;;;;1.03;100.00;95995.25;4189767;28;20223;-49
2024/01/18 03:24:10;;;;;;;1.45;1.35;;;;;;;1.01;100.00;95994.66;4191185;28;20203;-50
2024/01/18 03:26:12;;;;;;;1.38;1.33;;;;;;;0.99;100.00;95995.97;4200284;28;20199;-50
2024/01/18 03:28:13;;;;;;;1.40;1.40;;;;;;;0.88;100.00;95991.56;4191879;28;20226;-49
2024/01/18 03:30:15;;;;;;;1.27;1.27;;;;;;;0.82;100.00;95998.75;4189443;28;20253;-51
2024/01/18 03:32:17;;;;;;;1.65;1.55;;;;;;;0.91;100.00;96002.63;4193603;28;20269;-50
2024/01/18 03:34:19;;;;;;;1.10;1.10;;;;;;;0.91;100.00;96002.63;4192066;28;20253;-50
2024/01/18 03:36:21;;;;;;;1.73;1.63;;;;;;;0.91;100.00;96002.63;4190918;28;20204;-50
2024/01/18 03:38:22;;;;;;;2.03;1.92;;;;;;;0.91;100.00;95997.25;4194077;28;20290;-49
2024/01/18 03:40:24;;;;;;;1.13;1.13;;;;;;;0.91;100.00;95986.50;4196105;28;20653;-50
2024/01/18 03:42:26;;;;;;;1.23;1.13;;;;;;;0.84;100.00;95991.25;4195153;28;20651;-49
2024/01/18 03:44:27;;;;;;;1.33;1.23;;;;;;;0.81;100.00;95997.13;4196986;28;20211;-50
2024/01/18 03:46:29;;;;;;;1.40;1.40;;;;;;;0.92;100.00;96001.56;4177918;28;20257;-49
2024/01/18 03:48:31;;;;;;;1.60;1.50;;;;;;;0.92;100.00;96028.47;4195987;28;20218;-48
2024/01/18 03:50:33;;;;;;;1.75;1.65;;;;;;;0.94;100.00;96045.19;4210670;28;20249;-50
2024/01/18 03:52:34;;;;;;;1.15;1.15;;;;;;;0.96;100.00;96032.31;4194231;28;20680;-49
2024/01/18 03:54:36;;;;;;;1.35;1.35;;;;;;;0.96;100.00;96021.53;4195692;28;20669;-49
2024/01/18 03:56:38;;;;;;;1.30;1.30;;;;;;;0.67;100.00;96012.00;4183963;28;20223;-50
2024/01/18 03:58:41;;;;;;;1.30;1.30;;;;;;;0.82;100.00;96014.09;4195722;28;20237;-50
2024/01/18 04:00:43;;;;;;;1.60;1.60;;;;;;;0.82;100.00;96008.72;4193126;28;20296;-50
2024/01/18 04:02:45;;;;;;;2.50;2.15;;;;;;;0.71;100.00;96007.78;4198623;28;20223;-49
2024/01/18 04:04:47;;;;;;;1.25;1.25;;;;;;;0.68;100.00;96015.53;4195070;28;20261;-50
2024/01/18 04:06:49;;;;;;;1.40;1.30;;;;;;;0.73;100.00;96021.78;4193312;28;20203;-49
2024/01/18 04:08:54;;;;;;;1.35;1.27;;;;;;;0.80;100.00;96017.03;4199526;28;20240;-49
2024/01/18 04:10:55;;;;;;;1.45;1.35;;;;;;;0.76;100.00;96018.63;4195863;28;20234;-50
2024/01/18 04:12:57;;;;;;;1.10;1.10;;;;;;;0.84;100.00;96018.16;4199502;28;20235;-49
2024/01/18 04:15:00;;;;;;;1.00;1.00;;;;;;;0.83;100.00;96011.16;4195875;28;20207;-50
2024/01/18 04:17:01;;;;;;;2.00;1.90;;;;;;;0.74;100.00;96018.03;4213035;28;20210;-50
2024/01/18 04:19:04;;;;;;;1.10;1.10;;;;;;;0.67;100.00;96022.78;4213803;28;20214;-50
2024/01/18 04:21:10;;;;;;;1.38;1.27;;;;;;;0.65;100.00;96024.91;4194697;28;20219;-49
2024/01/18 04:23:12;;;;;;;1.38;1.38;;;;;;;0.74;100.00;96039.53;4194134;28;20574;-50
2024/01/18 04:25:14;;;;;;;1.77;1.67;;;;;;;0.82;100.00;96052.56;4193291;28;20219;-49
2024/01/18 04:27:16;;;;;;;1.77;1.67;;;;;;;0.81;100.00;96064.41;4210182;28;20545;-49
2024/01/18 04:29:18;;;;;;;1.73;1.63;;;;;;;0.82;100.00;96068.72;4195205;28;20751;-49
2024/01/18 04:31:19;;;;;;;2.53;2.33;;;;;;;0.83;100.00;96067.66;4195439;28;20203;-50
2024/01/18 04:33:21;;;;;;;2.08;1.98;;;;;;;0.82;100.00;96063.31;4186322;28;20888;-49
2024/01/18 04:35:23;;;;;;;1.73;1.63;;;;;;;0.87;100.00;96060.72;4183263;28;20211;-49
2024/01/18 04:37:25;;;;;;;2.08;1.98;;;;;;;0.89;100.00;96057.78;4192907;28;20233;-49
2024/01/18 04:39:27;;;;;;;1.50;1.38;;;;;;;0.81;100.00;96055.53;4208036;28;20595;-48
2024/01/18 04:41:28;;;;;;;1.73;1.63;;;;;;;0.83;100.00;96062.28;4194600;28;20235;-50
2024/01/18 04:43:30;;;;;;;1.77;1.75;;;;;;;0.83;100.00;96059.59;4193406;28;20273;-50
2024/01/18 04:45:32;;;;;;;1.27;1.27;;;;;;;0.86;100.00;96063.63;4193485;28;20239;-51
2024/01/18 04:47:34;;;;;;;1.67;1.58;;;;;;;0.83;100.00;96056.91;4203340;28;20199;-54
2024/01/18 04:49:35;;;;;;;1.10;1.10;;;;;;;0.85;100.00;96056.63;4187379;28;20288;-52
2024/01/18 04:51:39;;;;;;;1.58;1.58;;;;;;;0.71;100.00;96055.38;4174052;28;20245;-50
2024/01/18 04:53:41;;;;;;;1.30;1.30;;;;;;;0.82;100.00;96067.91;4189370;28;20261;-51
2024/01/18 04:55:43;;;;;;;1.52;1.42;;;;;;;0.73;100.00;96056.75;4188564;28;20215;-52
2024/01/18 04:57:45;;;;;;;2.03;1.92;;;;;;;0.63;100.00;96053.13;4188739;28;20211;-52
2024/01/18 04:59:47;;;;;;;2.05;1.95;;;;;;;0.65;100.00;96059.88;4189922;28;20199;-51
2024/01/18 05:01:49;;;;;;;1.92;1.83;;;;;;;0.62;100.00;96052.28;4187047;28;20235;-51
2024/01/18 05:03:50;;;;;;;1.60;1.50;;;;;;;0.51;100.00;96047.84;4185945;28;20207;-52
2024/01/18 05:05:52;;;;;;;1.63;1.53;;;;;;;0.53;100.00;96051.09;4186678;28;20204;-51
2024/01/18 05:07:54;;;;;;;2.07;1.97;;;;;;;0.50;100.00;96051.63;4169297;28;20593;-49
2024/01/18 05:09:57;;;;;;;1.97;1.87;;;;;;;0.61;100.00;96064.13;4184408;28;20287;-49
2024/01/18 05:11:59;;;;;;;1.47;1.47;;;;;;;0.58;100.00;96066.50;4186304;28;20302;-52
2024/01/18 05:14:04;;;;;;;1.67;1.67;;;;;;;0.59;100.00;96068.94;4190711;28;20246;-52
2024/01/18 05:16:06;;;;;;;1.60;1.50;;;;;;;0.53;100.00;96067.25;4188023;28;20246;-52
2024/01/18 05:18:08;;;;;;;1.27;1.27;;;;;;;0.58;100.00;96066.50;4169270;28;20307;-51
2024/01/18 05:20:11;;;;;;;1.80;1.67;;;;;;;0.65;100.00;96067.94;4185640;28;20280;-50
2024/01/18 05:22:13;;;;;;;1.90;1.80;;;;;;;0.57;100.00;96065.69;4202943;28;20235;-50
2024/01/18 05:24:15;;;;;;;1.27;1.27;;;;;;;0.69;100.00;96079.03;4190988;28;20222;-53
2024/01/18 05:26:17;;;;;;;1.77;1.75;;;;;;;0.68;100.00;96067.44;4187321;28;20604;-51
2024/01/18 05:28:18;;;;;;;1.95;1.85;;;;;;;0.60;100.00;96075.94;4205451;28;20218;-52
2024/01/18 05:30:21;;;;;;;1.53;1.43;;;;;;;0.63;100.00;96070.09;4186770;28;20237;-51
2024/01/18 05:32:23;;;;;;;2.55;2.42;;;;;;;0.79;100.00;96057.63;4190039;28;20231;-52
2024/01/18 05:34:26;;;;;;;2.00;1.90;;;;;;;0.65;100.00;96067.13;4189448;28;20346;-51
2024/01/18 05:36:28;;;;;;;1.48;1.38;;;;;;;0.58;100.00;96067.31;4189459;28;20219;-51
2024/01/18 05:38:33;;;;;;;2.03;1.92;;;;;;;0.68;100.00;96067.44;4192161;28;20222;-51
2024/01/18 05:40:42;;;;;;;2.07;1.97;;;;;;;0.57;100.00;96063.00;4193134;28;20259;-52
2024/01/18 05:42:44;;;;;;;2.83;2.63;;;;;;;0.58;100.00;96067.31;4188638;28;20234;-50
2024/01/18 05:44:47;;;;;;;1.90;1.80;;;;;;;0.60;100.00;96070.56;4188910;28;20298;-54
2024/01/18 05:46:49;;;;;;;2.20;2.10;;;;;;;0.50;100.00;96075.81;4207711;28;20217;-50
2024/01/18 05:48:53;;;;;;;1.37;1.37;;;;;;;0.50;100.00;96075.81;4170885;28;20228;-52
2024/01/18 05:50:55;;;;;;;1.67;1.57;;;;;;;0.51;100.00;96073.94;4204307;28;20253;-50
2024/01/18 05:52:57;;;;;;;2.33;2.23;;;;;;;0.41;100.00;96066.53;4188778;28;20226;-52
2024/01/18 05:54:59;;;;;;;2.50;2.37;;;;;;;0.42;100.00;96078.91;4188255;28;20207;-53
2024/01/18 05:57:01;;;;;;;1.40;1.30;;;;;;;0.49;100.00;96079.53;4190682;28;20215;-50
2024/01/18 05:59:03;;;;;;;2.00;1.90;;;;;;;0.52;100.00;96078.25;4184241;28;20258;-51
2024/01/18 06:01:05;;;;;;;1.53;1.47;;;;;;;0.49;100.00;96078.75;4202834;28;20238;-53
2024/01/18 06:03:08;;;;;;;1.87;1.77;;;;;;;0.47;100.00;96076.28;4204799;28;20673;-50
2024/01/18 06:05:11;;;;;;;2.00;1.90;;;;;;;0.53;100.00;96091.44;4186683;28;20774;-51
2024/01/18 06:07:13;;;;;;;2.00;1.90;;;;;;;0.62;100.00;96089.16;4187858;28;20326;-52
2024/01/18 06:09:16;;;;;;;1.47;1.43;;;;;;;0.40;100.00;96091.78;4186561;28;20207;-52
2024/01/18 06:11:18;;;;;;;2.80;2.60;;;;;;;0.41;100.00;96082.66;4185138;28;20208;-49
2024/01/18 06:13:20;;;;;;;1.80;1.70;;;;;;;0.47;100.00;96075.50;4183488;28;20211;-50
2024/01/18 06:15:22;;;;;;;2.13;2.03;;;;;;;0.41;100.00;96088.03;4201727;28;20959;-53
2024/01/18 06:17:24;;;;;;;1.87;1.77;;;;;;;0.46;100.00;96101.56;4187273;28;20211;-52
2024/01/18 06:19:26;;;;;;;3.17;2.97;;;;;;;0.50;100.00;96112.66;4190427;28;20837;-52
2024/01/18 06:21:28;;;;;;;1.60;1.50;;;;;;;0.52;100.00;96103.28;4189377;28;20697;-51
2024/01/18 06:23:29;;;;;;;2.37;2.17;;;;;;;0.46;100.00;96100.72;4183293;28;20243;-53
2024/01/18 06:25:31;;;;;;;2.30;2.20;;;;;;;0.32;100.00;96094.91;4187342;28;20207;-54
2024/01/18 06:27:35;;;;;;;2.63;2.47;;;;;;;0.33;100.00;96112.66;4186513;28;20705;-51
2024/01/18 06:29:37;;;;;;;2.63;2.07;;;;;;;0.36;100.00;96109.47;4199974;28;20214;-51
2024/01/18 06:31:38;;;;;;;2.73;2.53;;;;;;;0.46;100.00;96116.88;4173376;28;20273;-55
2024/01/18 06:33:41;;;;;;;2.07;1.97;;;;;;;0.44;100.00;96111.75;4185586;28;20219;-51
2024/01/18 06:35:43;;;;;;;2.50;2.40;;;;;;;0.38;100.00;96104.69;4185247;28;20202;-52
2024/01/18 06:37:44;;;;;;;2.40;2.20;;;;;;;0.24;100.00;96107.94;4184801;28;20218;-51
2024/01/18 06:39:46;;;;;;;1.70;1.70;;;;;;;0.30;100.00;96113.16;4189127;28;20203;-48
2024/01/18 06:41:48;;;;;;;1.83;1.73;;;;;;;0.23;100.00;96117.06;4188253;28;20226;-48
2024/01/18 06:43:50;;;;;;;1.47;1.47;;;;;;;0.12;100.00;96120.63;4183436;28;20266;-50
2024/01/18 06:45:54;;;;;;;1.83;1.73;;;;;;;0.10;100.00;96123.59;4186942;28;20294;-50
2024/01/18 06:47:56;;;;;;;2.27;2.17;;;;;;;0.17;100.00;96129.63;4202856;28;20298;-52
2024/01/18 06:49:58;;;;;;;1.23;1.20;;;;;;;0.18;100.00;96131.25;4170289;28;20235;-51
2024/01/18 06:52:00;;;;;;;1.57;1.47;;;;;;;0.11;100.00;96141.34;4188196;28;20227;-51
2024/01/18 06:54:02;;;;;;;1.50;1.50;;;;;;;-0.11;100.00;96140.38;4190981;28;20250;-51
2024/01/18 06:56:10;;;;;;;1.50;1.50;;;;;;;-0.03;100.00;96150.75;4191390;28;20252;-50
2024/01/18 06:58:12;;;;;;;1.00;1.00;;;;;;;-0.14;100.00;96155.38;4207664;28;20602;-51
2024/01/18 07:00:16;;;;;;;1.50;1.50;;;;;;;-0.03;100.00;96158.00;4191425;28;20204;-50
2024/01/18 07:02:18;;;;;;;2.40;2.30;;;;;;;-0.22;100.00;96156.56;4191195;28;20284;-55
2024/01/18 07:04:20;;;;;;;1.20;1.20;;;;;;;-0.06;100.00;96161.97;4170002;28;20423;-50
2024/01/18 07:06:21;;;;;;;1.47;1.37;;;;;;;-0.09;100.00;96160.84;4188813;28;20310;-50
2024/01/18 07:08:27;;;;;;;2.20;2.07;;;;;;;-0.23;100.00;96172.91;4208185;28;20217;-50
2024/01/18 07:10:28;;;;;;;1.20;1.20;;;;;;;-0.12;100.00;96173.69;4173046;28;20211;-52
2024/01/18 07:12:32;;;;;;;1.43;1.43;;;;;;;-0.26;100.00;96176.94;4189323;28;20227;-50
2024/01/18 07:14:34;;;;;;;1.60;1.40;;;;;;;-0.29;100.00;96181.97;4195385;28;20207;-50
2024/01/18 07:16:36;;;;;;;2.10;2.00;;;;;;;-0.26;100.00;96197.59;4195510;28;20203;-51
2024/01/18 07:18:38;;;;;;;1.23;1.23;;;;;;;-0.38;100.00;96194.13;4197960;28;20210;-52
2024/01/18 07:20:40;;;;;;;1.80;1.70;;;;;;;-0.42;100.00;96204.53;4178764;28;20486;-50
2024/01/18 07:22:41;;;;;;;1.43;1.43;;;;;;;-0.44;100.00;96205.81;4195287;28;20592;-51
2024/01/18 07:24:43;;;;;;;1.30;1.30;;;;;;;-0.46;100.00;96199.88;4193830;28;20614;-52
2024/01/18 07:26:45;;;;;;;1.83;1.73;;;;;;;-0.41;100.00;96205.34;4192278;28;20199;-51
2024/01/18 07:28:46;;;;;;;1.20;1.20;;;;;;;-0.44;100.00;96198.59;4193865;28;20285;-49
2024/01/18 07:30:48;;;;;;;1.10;1.10;;;;;;;-0.46;100.00;96202.56;4190215;28;20203;-49
2024/01/18 07:32:50;;;;;;;1.53;1.53;;;;;;;-0.49;100.00;96205.75;4193599;28;20227;-51
2024/01/18 07:34:52;;;;;;;1.67;1.57;;;;;;;-0.56;100.00;96207.75;4191942;28;20207;-52
2024/01/18 07:36:55;;;;;;;1.73;1.73;;;;;;;-0.65;100.00;96203.78;4187779;28;20834;-52
2024/01/18 07:38:57;;;;;;;1.50;1.50;;;;;;;-0.56;100.00;96213.13;4191256;28;20553;-50
2024/01/18 07:40:59;;;;;;;1.20;1.20;;;;;;;-0.60;100.00;96218.09;4209276;28;20217;-49
2024/01/18 07:43:04;;;;;;;2.40;2.30;;;;;;;-0.56;100.00;96221.16;4191522;28;20233;-52
2024/01/18 07:45:07;;;;;;;1.57;1.50;;;;;;;-0.58;100.00;96231.31;4175151;28;20208;-51
2024/01/18 07:47:10;;;;;;;1.10;1.10;;;;;;;-0.66;100.00;96234.38;4205173;28;20228;-53
2024/01/18 07:49:12;;;;;;;1.50;1.50;;;;;;;-0.54;100.00;96243.22;4188698;28;21769;-50
2024/01/18 07:51:14;;;;;;;1.60;1.60;;;;;;;-0.72;100.00;96240.66;4188303;28;20211;-51
2024/01/18 07:53:16;;;;;;;1.40;1.40;;;;;;;-0.63;100.00;96239.25;4191452;28;20204;-49
2024/01/18 07:55:18;;;;;;;1.23;1.23;;;;;;;-0.70;100.00;96249.28;4189423;28;20211;-51
2024/01/18 07:57:22;;;;;;;1.50;1.50;;;;;;;-0.75;100.00;96257.25;4189444;28;20231;-55
2024/01/18 07:59:24;;;;;;;1.53;1.53;;;;;;;-0.73;100.00;96255.16;4188795;28;20326;-50
2024/01/18 08:01:26;;;;;;;1.90;1.90;;;;;;;-0.76;100.00;96256.44;4147285;28;20278;-49
2024/01/18 08:03:31;;;;;;;2.17;2.07;;;;;;;-0.82;100.00;96257.38;4182448;28;20223;-56
2024/01/18 08:05:34;;;;;;;1.60;1.60;;;;;;;-0.76;100.00;96255.59;4189836;28;20908;-51
2024/01/18 08:07:38;;;;;;;1.80;1.80;;;;;;;-0.67;100.00;96264.94;4187718;28;20238;-51
2024/01/18 08:09:40;;;;;;;1.57;1.47;;;;;;;-0.63;100.00;96266.09;4184519;28;20326;-51
2024/01/18 08:11:42;;;;;;;1.40;1.40;;;;;;;-0.74;100.00;96265.06;4202279;28;20234;-52
2024/01/18 08:13:44;;;;;;;1.57;1.57;;;;;;;-0.76;100.00;96277.06;4189477;28;20232;-51
2024/01/18 08:15:50;;;;;;;1.87;1.87;;;;;;;-0.83;100.00;96271.00;4170614;28;20732;-50
2024/01/18 08:17:55;;;;;;;2.30;2.20;;;;;;;-0.87;100.00;96276.03;4176751;28;20232;-51
2024/01/18 08:19:57;;;;;;;2.00;1.97;;;;;;;-0.90;100.00;96273.00;4187717;28;20703;-51
2024/01/18 08:21:58;;;;;;;1.73;1.67;;;;;;;-0.78;100.00;96280.00;4184328;28;20306;-51
2024/01/18 08:24:00;;;;;;;1.50;1.50;;;;;;;-0.84;100.00;96285.47;4167904;28;20255;-49
2024/01/18 08:26:02;;;;;;;1.53;1.53;;;;;;;-0.80;100.00;96283.97;4157679;28;20244;-50
2024/01/18 08:28:04;;;;;;;1.63;1.63;;;;;;;-0.73;100.00;96293.56;4171298;28;20220;-52
2024/01/18 08:30:13;;;;;;;1.30;1.30;;;;;;;-0.78;100.00;96295.28;4173690;28;20267;-52
2024/01/18 08:32:15;;;;;;;2.60;2.50;;;;;;;-0.74;100.00;96304.50;4173390;28;20223;-50
2024/01/18 08:34:17;;;;;;;1.60;1.60;;;;;;;-0.80;100.00;96310.81;4171762;28;20196;-51
2024/01/18 08:36:19;;;;;;;1.80;1.80;;;;;;;-0.74;100.00;96317.94;4182715;28;20238;-50
2024/01/18 08:38:21;;;;;;;1.50;1.50;;;;;;;-0.71;100.00;96318.28;4171953;28;20253;-53
2024/01/18 08:40:23;;;;;;;1.60;1.60;;;;;;;-0.63;100.00;96338.56;4172444;28;20207;-51
2024/01/18 08:42:28;;;;;;;1.23;1.23;;;;;;;-0.52;100.00;96337.75;4173506;28;20318;-51
2024/01/18 08:44:30;;;;;;;1.57;1.57;;;;;;;-0.43;100.00;96339.03;4172508;28;20222;-51
2024/01/18 08:46:31;;;;;;;0.93;0.93;;;;;;;-0.37;100.00;96346.16;4174859;28;20214;-50
2024/01/18 08:48:36;;;;;;;1.60;1.50;;;;;;;-0.46;100.00;96350.25;4159810;28;20270;-51
2024/01/18 08:50:38;;;;;;;1.83;1.83;;;;;;;-0.39;100.00;96354.47;4168394;28;20890;-52
2024/01/18 08:52:41;;;;;;;1.93;1.83;;;;;;;-0.40;100.00;96357.38;4178344;28;20756;-51
2024/01/18 08:54:43;;;;;;;1.33;1.33;;;;;;;-0.30;100.00;96353.03;4176096;28;20204;-50
2024/01/18 08:56:46;;;;;;;1.50;1.50;;;;;;;-0.31;100.00;96355.97;4172102;28;20224;-50
2024/01/18 08:58:48;;;;;;;1.70;1.60;;;;;;;-0.25;100.00;96360.41;4185507;28;20200;-50
2024/01/18 09:00:53;;;;;;;1.87;1.77;;;;;;;-0.20;100.00;96355.94;4186448;28;20208;-50
2024/01/18 09:02:55;;;;;;;1.97;1.87;;;;;;;-0.39;100.00;96364.38;4160130;28;20278;-50
2024/01/18 09:04:57;;;;;;;1.83;1.73;;;;;;;-0.29;100.00;96357.38;4171492;28;20208;-49
2024/01/18 09:07:00;;;;;;;2.27;2.17;;;;;;;-0.30;100.00;96357.59;4169793;28;20239;-51
2024/01/18 09:09:04;;;;;;;1.10;1.10;;;;;;;-0.32;100.00;96365.06;4161007;28;20882;-51
2024/01/18 09:11:06;;;;;;;1.30;1.30;;;;;;;-0.29;100.00;96370.00;4189191;28;20250;-51
2024/01/18 09:13:08;;;;;;;1.50;1.50;;;;;;;-0.26;100.00;96369.50;4202610;28;20664;-53
2024/01/18 09:15:10;;;;;;;2.03;1.93;;;;;;;-0.20;100.00;96373.94;4189721;28;20212;-51
2024/01/18 09:17:12;;;;;;;1.50;1.50;;;;;;;-0.30;100.00;96373.69;4176955;28;20569;-50
2024/01/18 09:19:14;;;;;;;2.20;2.00;;;;;;;-0.29;100.00;96386.91;4189194;28;20203;-49
2024/01/18 09:21:16;;;;;;;1.53;1.53;;;;;;;-0.18;100.00;96387.94;4186181;28;20257;-51
2024/01/18 09:23:18;;;;;;;1.60;1.60;;;;;;;-0.13;100.00;96396.97;4188171;28;20279;-49
2024/01/18 09:25:23;;;;;;;2.27;2.17;;;;;;;-0.23;100.00;96406.63;4187619;28;20299;-49
2024/01/18 09:27:25;;;;;;;1.20;1.20;;;;;;;-0.13;100.00;96406.88;4185451;28;20301;-49
2024/01/18 09:29:29;;;;;;;1.30;1.30;;;;;;;-0.30;100.00;96412.13;4202045;28;20211;-51
2024/01/18 09:31:31;;;;;;;1.47;1.47;;;;;;;-0.34;100.00;96421.69;4177012;28;20228;-51
2024/01/18 09:33:43;;;;;;;1.20;1.20;;;;;;;-0.20;100.00;96428.47;4189437;28;20572;-50